Time;durP1;ratioP1;P1;durP2;ratioP2;P2;SDS_P1;SDS_P2;PMS_P1;PMS_P2;Temp;Humidity;BMP_temperature;BMP_pressure;BME280_temperature;BME280_humidity;BME280_pressure;Samples;Min_cycle;Max_cycle;Signal;HPM_P1;HPM_P2
2023/07/29 00:00:44;;;;;;;0.93;0.82;;;20.40;99.90;;;;;;4901527;29;20045;-83
2023/07/29 00:03:10;;;;;;;1.85;1.08;;;20.30;99.90;;;;;;4901005;29;20101;-82
2023/07/29 00:05:38;;;;;;;4.28;0.85;;;20.30;99.90;;;;;;4901896;29;20076;-82
2023/07/29 00:08:05;;;;;;;6.07;2.10;;;20.30;99.90;;;;;;4902180;29;20044;-83
2023/07/29 00:10:35;;;;;;;3.63;1.80;;;20.30;99.90;;;;;;4901686;29;20135;-79
2023/07/29 00:13:02;;;;;;;1.40;1.30;;;20.30;99.90;;;;;;4899875;29;20636;-83
2023/07/29 00:15:28;;;;;;;3.33;1.60;;;20.30;99.90;;;;;;4900742;29;20051;-83
2023/07/29 00:17:55;;;;;;;5.32;1.23;;;20.20;99.90;;;;;;4901003;29;20076;-82
2023/07/29 00:20:22;;;;;;;2.30;1.48;;;20.20;99.90;;;;;;4900671;29;20048;-83
2023/07/29 00:22:55;;;;;;;1.60;1.40;;;20.20;99.90;;;;;;4898700;29;20565;-82
2023/07/29 00:25:22;;;;;;;1.50;0.80;;;20.20;99.90;;;;;;4901626;29;20053;-83
2023/07/29 00:27:48;;;;;;;1.85;1.40;;;20.20;99.90;;;;;;4900141;29;20076;-83
2023/07/29 00:30:15;;;;;;;3.53;0.85;;;20.20;99.90;;;;;;4900814;29;20056;-83
2023/07/29 00:32:42;;;;;;;2.17;0.60;;;20.20;99.90;;;;;;4900932;29;20083;-82
2023/07/29 00:35:09;;;;;;;6.00;1.17;;;20.10;99.90;;;;;;4915839;29;20060;-82
2023/07/29 00:37:37;;;;;;;3.78;3.20;;;20.10;99.90;;;;;;4900914;29;20613;-83
2023/07/29 00:40:19;;;;;;;8.27;5.75;;;20.10;99.90;;;;;;4897744;29;20053;-83
2023/07/29 00:42:46;;;;;;;7.20;5.30;;;20.10;99.90;;;;;;4900441;29;20048;-83
2023/07/29 00:45:13;;;;;;;7.75;5.65;;;20.10;99.90;;;;;;4901571;29;20179;-83
2023/07/29 00:47:41;;;;;;;5.57;4.88;;;20.10;99.90;;;;;;4902585;29;20060;-82
2023/07/29 00:50:09;;;;;;;6.15;5.40;;;20.00;99.90;;;;;;4909161;29;20077;-83
2023/07/29 00:52:36;;;;;;;7.63;5.53;;;20.00;99.90;;;;;;4911119;29;20052;-82
2023/07/29 00:55:05;;;;;;;1.83;1.40;;;20.00;99.90;;;;;;4912451;29;20048;-83
2023/07/29 00:57:32;;;;;;;5.65;3.85;;;20.00;99.90;;;;;;4908672;29;20045;-83
2023/07/29 01:00:00;;;;;;;4.40;2.60;;;20.00;99.90;;;;;;4912308;29;20077;-82
2023/07/29 01:02:29;;;;;;;3.83;1.90;;;20.00;99.90;;;;;;4908494;29;20040;-83
2023/07/29 01:04:57;;;;;;;2.33;1.70;;;20.00;99.90;;;;;;4919389;29;20402;-83
2023/07/29 01:07:43;;;;;;;2.60;2.03;;;20.10;99.90;;;;;;4904626;29;20141;-83
2023/07/29 01:10:39;;;;;;;7.00;3.25;;;20.10;99.90;;;;;;4919144;29;20056;-82
2023/07/29 01:13:18;;;;;;;6.25;3.72;;;20.10;99.90;;;;;;4903439;29;20559;-83
2023/07/29 01:15:55;;;;;;;9.18;6.95;;;20.10;99.90;;;;;;4903984;29;20057;-83
2023/07/29 01:18:25;;;;;;;12.65;7.47;;;20.10;99.90;;;;;;4904352;29;20056;-83
2023/07/29 01:20:57;;;;;;;17.98;11.80;;;20.10;99.90;;;;;;4904857;29;20045;-83
2023/07/29 01:23:36;;;;;;;12.73;9.65;;;20.10;99.90;;;;;;4904684;29;20249;-83
2023/07/29 01:26:03;;;;;;;7.87;5.27;;;20.00;99.90;;;;;;4902016;29;20045;-82
2023/07/29 01:28:31;;;;;;;9.18;6.47;;;20.00;99.90;;;;;;4903990;29;20045;-83
2023/07/29 01:31:09;;;;;;;8.15;6.63;;;20.00;99.90;;;;;;4904103;29;20075;-83
2023/07/29 01:33:42;;;;;;;11.05;7.57;;;20.00;99.90;;;;;;4903392;29;20432;-83
2023/07/29 01:36:16;;;;;;;8.25;4.43;;;20.00;99.90;;;;;;4902110;29;20076;-83
2023/07/29 01:38:44;;;;;;;6.60;4.32;;;20.00;99.90;;;;;;4901201;29;20045;-83
2023/07/29 01:41:11;;;;;;;6.47;4.90;;;20.00;99.90;;;;;;4903921;29;20072;-82
2023/07/29 01:43:44;;;;;;;5.68;3.10;;;20.00;99.90;;;;;;4903931;29;20100;-82
2023/07/29 01:46:11;;;;;;;4.63;3.47;;;20.00;99.90;;;;;;4918653;29;20056;-82
2023/07/29 01:48:39;;;;;;;6.25;4.28;;;20.00;99.90;;;;;;4904078;29;20497;-82
2023/07/29 01:51:06;;;;;;;4.00;2.65;;;20.00;99.90;;;;;;4903900;29;20045;-82
2023/07/29 01:53:33;;;;;;;3.78;2.05;;;20.00;99.90;;;;;;4904614;29;20048;-82
2023/07/29 01:56:00;;;;;;;3.95;2.30;;;20.00;99.90;;;;;;4900781;29;20048;-82
2023/07/29 01:58:26;;;;;;;5.70;3.22;;;20.00;99.90;;;;;;4904321;29;20049;-82
2023/07/29 02:00:53;;;;;;;5.32;3.28;;;20.10;99.90;;;;;;4903902;29;20092;-83
2023/07/29 02:03:20;;;;;;;7.20;3.70;;;20.00;99.90;;;;;;4903693;29;20055;-83
2023/07/29 02:05:47;;;;;;;7.70;3.65;;;20.10;99.90;;;;;;4903454;29;20397;-83
2023/07/29 02:08:13;;;;;;;5.95;3.75;;;20.00;99.90;;;;;;4903633;29;20044;-84
2023/07/29 02:10:40;;;;;;;5.07;3.58;;;20.00;99.90;;;;;;4903299;29;20112;-82
2023/07/29 02:13:07;;;;;;;7.00;4.47;;;20.10;99.90;;;;;;4903165;29;20044;-82
2023/07/29 02:15:34;;;;;;;6.20;3.40;;;20.10;99.90;;;;;;4918479;29;20045;-82
2023/07/29 02:18:01;;;;;;;5.00;2.92;;;20.10;99.90;;;;;;4903261;29;20547;-82
2023/07/29 02:20:28;;;;;;;3.75;2.33;;;20.10;99.90;;;;;;4903204;29;20076;-83
2023/07/29 02:22:55;;;;;;;4.50;2.22;;;20.10;99.90;;;;;;4903833;29;20562;-82
2023/07/29 02:25:22;;;;;;;8.05;2.33;;;20.20;99.90;;;;;;4902906;29;20108;-83
2023/07/29 02:27:48;;;;;;;3.53;1.95;;;20.10;99.90;;;;;;4903623;29;20061;-83
2023/07/29 02:30:15;;;;;;;4.13;2.55;;;20.20;99.90;;;;;;4903351;29;20072;-83
2023/07/29 02:32:42;;;;;;;5.55;2.08;;;20.20;99.90;;;;;;4902817;29;20112;-82
2023/07/29 02:35:10;;;;;;;3.72;2.17;;;20.20;99.90;;;;;;4903258;29;20053;-82
2023/07/29 02:37:36;;;;;;;3.58;2.00;;;20.20;99.90;;;;;;4903199;29;20048;-83
2023/07/29 02:40:04;;;;;;;4.25;2.22;;;20.20;99.90;;;;;;4904104;29;20119;-82
2023/07/29 02:42:30;;;;;;;5.45;3.22;;;20.20;99.90;;;;;;4903643;29;20053;-83
2023/07/29 02:44:57;;;;;;;4.07;3.17;;;20.20;99.90;;;;;;4905236;29;20045;-83
2023/07/29 02:47:24;;;;;;;4.90;2.60;;;20.30;99.90;;;;;;4904342;29;20063;-83
2023/07/29 02:49:50;;;;;;;3.80;2.33;;;20.30;99.90;;;;;;4903877;29;20188;-84
2023/07/29 02:52:17;;;;;;;4.32;2.65;;;20.20;99.90;;;;;;4918048;29;20049;-83
2023/07/29 02:54:44;;;;;;;2.78;1.83;;;20.20;99.90;;;;;;4903085;29;20044;-83
2023/07/29 02:57:10;;;;;;;2.20;2.00;;;20.30;99.90;;;;;;4918098;29;20049;-83
2023/07/29 02:59:37;;;;;;;2.83;1.63;;;20.20;99.90;;;;;;4904647;29;20058;-83
2023/07/29 03:02:04;;;;;;;2.55;1.40;;;20.30;99.90;;;;;;4903167;29;20072;-81
2023/07/29 03:04:31;;;;;;;2.45;1.50;;;20.30;99.90;;;;;;4902944;29;20120;-82
2023/07/29 03:07:00;;;;;;;2.50;1.30;;;20.30;99.90;;;;;;4902996;29;20346;-83
2023/07/29 03:09:28;;;;;;;3.45;1.60;;;20.40;99.90;;;;;;4917847;29;20049;-83
2023/07/29 03:11:55;;;;;;;4.05;1.70;;;20.30;99.90;;;;;;4900381;29;20074;-82
2023/07/29 03:14:21;;;;;;;5.25;1.60;;;20.40;99.90;;;;;;4903506;29;20184;-83
2023/07/29 03:16:48;;;;;;;3.53;1.67;;;20.40;99.90;;;;;;4905146;29;20048;-83
2023/07/29 03:19:15;;;;;;;1.75;1.20;;;20.40;99.90;;;;;;4917707;29;20048;-82
2023/07/29 03:21:42;;;;;;;3.80;1.50;;;20.40;99.90;;;;;;4901367;29;20048;-82
2023/07/29 03:24:09;;;;;;;3.28;1.70;;;20.50;99.90;;;;;;4903184;29;20048;-83
2023/07/29 03:26:36;;;;;;;2.95;1.30;;;20.40;99.90;;;;;;4917884;29;20108;-84
2023/07/29 03:29:03;;;;;;;5.05;1.63;;;20.50;99.90;;;;;;4901656;29;20048;-83
2023/07/29 03:31:30;;;;;;;2.65;1.60;;;20.50;99.90;;;;;;4903141;29;20076;-83
2023/07/29 03:33:56;;;;;;;3.08;1.70;;;20.50;99.90;;;;;;4903744;29;20108;-82
2023/07/29 03:36:25;;;;;;;2.45;1.60;;;20.60;99.90;;;;;;4903059;29;20049;-83
2023/07/29 03:38:52;;;;;;;2.70;1.60;;;20.60;99.90;;;;;;4903041;29;20408;-82
2023/07/29 03:41:18;;;;;;;5.15;1.48;;;20.60;99.90;;;;;;4916642;29;20052;-83
2023/07/29 03:43:45;;;;;;;3.00;1.70;;;20.60;99.90;;;;;;4916285;29;20048;-83
2023/07/29 03:46:13;;;;;;;2.47;1.85;;;20.70;99.90;;;;;;4901422;29;20044;-83
2023/07/29 03:48:40;;;;;;;2.47;1.65;;;20.70;99.90;;;;;;4916208;29;20051;-82
2023/07/29 03:51:06;;;;;;;1.75;1.40;;;20.70;99.90;;;;;;4898029;29;20055;-83
2023/07/29 03:53:33;;;;;;;2.05;1.50;;;20.70;99.90;;;;;;4901043;29;20052;-82
2023/07/29 03:56:00;;;;;;;2.55;1.50;;;20.80;99.90;;;;;;4897645;29;20096;-83
2023/07/29 03:58:26;;;;;;;1.85;1.23;;;20.80;99.90;;;;;;4900592;29;20505;-83
2023/07/29 04:00:53;;;;;;;1.88;1.20;;;20.80;99.90;;;;;;4900522;29;20457;-81
2023/07/29 04:03:20;;;;;;;1.55;1.20;;;20.80;99.90;;;;;;4900673;29;20124;-83
2023/07/29 04:05:47;;;;;;;2.90;1.40;;;20.80;99.90;;;;;;4901305;29;20426;-81
2023/07/29 04:08:13;;;;;;;2.78;1.08;;;20.80;99.90;;;;;;4900361;29;20049;-83
2023/07/29 04:10:40;;;;;;;3.75;1.42;;;20.80;99.90;;;;;;4914778;29;20485;-82
2023/07/29 04:13:07;;;;;;;1.60;1.30;;;20.80;99.90;;;;;;4900522;29;20048;-83
2023/07/29 04:15:34;;;;;;;1.50;1.20;;;20.80;99.90;;;;;;4898755;29;20060;-83
2023/07/29 04:18:01;;;;;;;3.13;1.40;;;20.80;99.90;;;;;;4899869;29;20056;-83
2023/07/29 04:20:29;;;;;;;2.25;1.50;;;20.80;99.90;;;;;;4900387;29;20044;-82
2023/07/29 04:22:55;;;;;;;2.60;1.40;;;20.80;99.90;;;;;;4914694;29;20053;-83
2023/07/29 04:25:22;;;;;;;2.55;1.27;;;20.80;99.90;;;;;;4915173;29;20055;-82
2023/07/29 04:27:49;;;;;;;2.70;1.30;;;20.80;99.90;;;;;;4899691;29;20405;-82
2023/07/29 04:30:16;;;;;;;1.40;1.27;;;20.90;99.90;;;;;;4899126;29;20080;-83
2023/07/29 04:32:44;;;;;;;1.50;1.20;;;20.90;99.90;;;;;;4901273;29;20575;-84
2023/07/29 04:35:11;;;;;;;2.05;1.50;;;21.00;99.90;;;;;;4901708;29;20083;-83
2023/07/29 04:37:38;;;;;;;1.80;1.20;;;21.00;99.90;;;;;;4903929;29;20552;-83
2023/07/29 04:40:05;;;;;;;3.40;1.48;;;21.10;99.90;;;;;;4905327;29;20049;-84
2023/07/29 04:42:32;;;;;;;1.65;1.27;;;21.10;99.90;;;;;;4904116;29;20643;-83
2023/07/29 04:44:59;;;;;;;2.72;1.20;;;21.10;99.90;;;;;;4904339;29;20049;-83
2023/07/29 04:47:26;;;;;;;3.17;1.17;;;21.10;99.90;;;;;;4904647;29;20064;-84
2023/07/29 04:49:53;;;;;;;3.85;1.30;;;21.20;99.90;;;;;;4904096;29;20080;-83
2023/07/29 04:52:20;;;;;;;2.67;1.30;;;21.20;99.90;;;;;;4903137;29;20424;-83
2023/07/29 04:54:47;;;;;;;1.23;1.13;;;21.20;99.90;;;;;;4905312;29;20048;-82
2023/07/29 04:57:14;;;;;;;1.88;1.40;;;21.20;99.90;;;;;;4919372;29;20055;-81
2023/07/29 04:59:40;;;;;;;1.70;1.20;;;21.30;99.90;;;;;;4904768;29;20060;-83
2023/07/29 05:02:07;;;;;;;1.75;1.17;;;21.30;99.90;;;;;;4904733;29;20129;-83
2023/07/29 05:04:34;;;;;;;2.88;1.27;;;21.30;99.90;;;;;;4904974;29;20494;-84
2023/07/29 05:07:00;;;;;;;2.25;1.20;;;21.30;99.90;;;;;;4904843;29;20045;-83
2023/07/29 05:09:27;;;;;;;2.33;1.58;;;21.40;99.90;;;;;;4902867;29;20449;-84
2023/07/29 05:11:54;;;;;;;3.22;1.23;;;21.40;99.90;;;;;;4900991;29;20048;-83
2023/07/29 05:14:21;;;;;;;3.03;1.05;;;21.40;99.90;;;;;;4905005;29;20053;-83
2023/07/29 05:16:49;;;;;;;2.03;1.35;;;21.50;99.90;;;;;;4904741;29;20048;-83
2023/07/29 05:19:16;;;;;;;1.45;1.13;;;21.50;99.90;;;;;;4904527;29;20057;-82
2023/07/29 05:21:43;;;;;;;1.55;1.02;;;21.60;99.90;;;;;;4904187;29;20509;-83
2023/07/29 05:24:09;;;;;;;2.70;1.45;;;21.60;99.90;;;;;;4905917;29;20048;-82
2023/07/29 05:26:36;;;;;;;2.03;1.30;;;21.60;99.90;;;;;;4905303;29;20045;-83
2023/07/29 05:29:03;;;;;;;4.40;1.48;;;21.70;99.90;;;;;;4904625;29;20505;-83
2023/07/29 05:31:30;;;;;;;2.80;1.38;;;21.70;99.90;;;;;;4904568;29;20528;-83
2023/07/29 05:33:58;;;;;;;2.20;1.60;;;21.80;99.90;;;;;;4904227;29;20108;-83
2023/07/29 05:36:25;;;;;;;1.92;1.33;;;21.80;99.90;;;;;;4904053;29;20057;-83
2023/07/29 05:38:52;;;;;;;4.60;1.30;;;21.80;99.90;;;;;;4903927;29;20489;-83
2023/07/29 05:41:19;;;;;;;3.65;1.55;;;21.80;99.90;;;;;;4918750;29;20489;-83
2023/07/29 05:43:46;;;;;;;1.67;1.30;;;21.80;99.90;;;;;;4904072;29;20048;-83
2023/07/29 05:46:13;;;;;;;1.58;1.20;;;21.90;99.90;;;;;;4902175;29;20045;-83
2023/07/29 05:48:40;;;;;;;1.35;1.23;;;21.90;99.90;;;;;;4901796;29;20151;-83
2023/07/29 05:51:06;;;;;;;5.53;1.60;;;22.00;99.90;;;;;;4904046;29;20052;-81
2023/07/29 05:53:33;;;;;;;2.80;1.60;;;22.00;99.90;;;;;;4902120;29;20077;-82
2023/07/29 05:56:00;;;;;;;2.40;1.40;;;22.00;99.90;;;;;;4903363;29;20053;-83
2023/07/29 05:58:27;;;;;;;3.40;1.50;;;22.10;99.90;;;;;;4903084;29;20064;-83
2023/07/29 06:00:53;;;;;;;2.60;1.38;;;22.10;99.90;;;;;;4900937;29;20048;-83
2023/07/29 06:03:20;;;;;;;2.35;1.20;;;22.10;99.90;;;;;;4918124;29;20056;-83
2023/07/29 06:05:48;;;;;;;1.40;1.30;;;22.20;99.90;;;;;;4902932;29;20073;-83
2023/07/29 06:08:19;;;;;;;1.95;1.40;;;22.30;99.90;;;;;;4903529;29;20060;-83
2023/07/29 06:10:46;;;;;;;2.40;1.40;;;22.30;99.90;;;;;;4903236;29;20415;-84
2023/07/29 06:13:12;;;;;;;1.45;1.30;;;22.30;99.90;;;;;;4903725;29;20056;-84
2023/07/29 06:15:39;;;;;;;1.35;1.13;;;22.40;99.90;;;;;;4904765;29;20061;-83
2023/07/29 06:18:06;;;;;;;1.67;1.40;;;22.40;99.90;;;;;;4904873;29;20318;-84
2023/07/29 06:20:33;;;;;;;3.65;1.50;;;22.40;99.90;;;;;;4904667;29;20053;-84
2023/07/29 06:22:59;;;;;;;2.70;1.10;;;22.50;99.90;;;;;;4904222;29;20049;-82
2023/07/29 06:25:26;;;;;;;1.80;1.40;;;22.50;99.90;;;;;;4903625;29;20063;-81
2023/07/29 06:27:53;;;;;;;4.00;1.40;;;22.40;99.90;;;;;;4903956;29;20428;-83
2023/07/29 06:30:19;;;;;;;8.07;1.38;;;22.40;99.90;;;;;;4903225;29;20052;-83
2023/07/29 06:32:46;;;;;;;4.65;1.40;;;22.50;99.90;;;;;;4903154;29;20151;-84
2023/07/29 06:35:13;;;;;;;1.90;1.30;;;22.40;99.90;;;;;;4917053;29;20044;-84
2023/07/29 06:37:40;;;;;;;3.15;1.75;;;22.40;99.90;;;;;;4903171;29;20048;-82
2023/07/29 06:40:07;;;;;;;1.60;1.02;;;22.40;99.90;;;;;;4901120;29;20143;-83
2023/07/29 06:42:33;;;;;;;1.52;1.30;;;22.30;99.90;;;;;;4916832;29;20112;-82
2023/07/29 06:45:00;;;;;;;1.65;1.10;;;22.30;99.90;;;;;;4902739;29;20041;-83
2023/07/29 06:47:27;;;;;;;1.75;1.10;;;22.30;99.90;;;;;;4902985;29;20049;-81
2023/07/29 06:49:54;;;;;;;3.17;1.20;;;22.30;99.90;;;;;;4902990;29;20048;-83
2023/07/29 06:52:21;;;;;;;2.17;1.20;;;22.20;99.90;;;;;;4903099;29;20108;-83
2023/07/29 06:54:47;;;;;;;2.05;1.33;;;22.20;99.90;;;;;;4902946;29;20108;-83
2023/07/29 06:57:14;;;;;;;2.10;1.33;;;22.30;99.90;;;;;;4902389;29;20504;-83
2023/07/29 06:59:41;;;;;;;3.45;1.23;;;22.40;99.90;;;;;;4902296;29;20052;-83
2023/07/29 07:02:07;;;;;;;2.17;1.35;;;22.40;99.90;;;;;;4902540;29;20049;-82
2023/07/29 07:04:34;;;;;;;1.92;1.30;;;22.60;99.90;;;;;;4902123;29;20121;-82
2023/07/29 07:07:01;;;;;;;3.55;1.30;;;22.60;99.90;;;;;;4903633;29;20628;-82
2023/07/29 07:09:28;;;;;;;3.78;1.40;;;22.70;99.90;;;;;;4904348;29;20064;-83
2023/07/29 07:11:54;;;;;;;2.28;1.30;;;22.80;99.90;;;;;;4903369;29;20108;-83
2023/07/29 07:14:21;;;;;;;4.13;1.20;;;22.70;99.90;;;;;;4903651;29;20076;-83
2023/07/29 07:16:48;;;;;;;2.00;1.30;;;22.70;99.90;;;;;;4903532;29;20060;-83
2023/07/29 07:19:15;;;;;;;1.50;1.25;;;22.70;99.90;;;;;;4902799;29;20432;-83
2023/07/29 07:21:41;;;;;;;3.67;1.60;;;22.70;99.90;;;;;;4902272;29;20052;-83
2023/07/29 07:24:08;;;;;;;1.98;1.35;;;22.70;99.90;;;;;;4902660;29;20044;-82
2023/07/29 07:26:35;;;;;;;2.50;1.40;;;22.70;99.90;;;;;;4902093;29;20105;-82
2023/07/29 07:29:02;;;;;;;2.47;1.45;;;22.70;99.90;;;;;;4902239;29;20617;-84
2023/07/29 07:31:32;;;;;;;2.10;1.50;;;22.70;99.90;;;;;;4900484;29;20052;-84
2023/07/29 07:33:59;;;;;;;3.58;1.20;;;22.70;99.90;;;;;;4901602;29;20063;-83
2023/07/29 07:36:26;;;;;;;1.95;1.27;;;22.80;99.90;;;;;;4901944;29;20077;-83
2023/07/29 07:38:52;;;;;;;2.42;1.10;;;22.80;99.90;;;;;;4901771;29;20052;-82
2023/07/29 07:41:19;;;;;;;2.95;1.20;;;22.80;99.90;;;;;;4898840;29;20048;-84
2023/07/29 07:43:46;;;;;;;2.90;1.33;;;22.90;99.90;;;;;;4902248;29;20048;-84
2023/07/29 07:46:12;;;;;;;3.28;1.20;;;22.90;99.90;;;;;;4903711;29;20100;-83
2023/07/29 07:48:39;;;;;;;1.83;1.20;;;23.10;99.90;;;;;;4903092;29;20135;-83
2023/07/29 07:51:15;;;;;;;3.70;0.98;;;23.20;99.90;;;;;;4903015;29;20185;-84
2023/07/29 07:53:42;;;;;;;1.52;1.20;;;23.30;99.90;;;;;;4917252;29;20410;-83
2023/07/29 07:56:08;;;;;;;3.15;1.65;;;23.40;99.90;;;;;;4903258;29;20049;-83
2023/07/29 07:58:35;;;;;;;2.30;1.40;;;23.50;99.90;;;;;;4902948;29;20057;-81
2023/07/29 08:01:03;;;;;;;4.35;1.50;;;23.60;99.90;;;;;;4904203;29;20100;-83
2023/07/29 08:03:30;;;;;;;1.40;1.30;;;23.60;99.90;;;;;;4904231;29;20059;-83
2023/07/29 08:05:58;;;;;;;2.45;1.20;;;23.70;99.90;;;;;;4901664;29;20524;-83
2023/07/29 08:08:26;;;;;;;2.83;1.50;;;23.70;99.90;;;;;;4902074;29;20048;-84
2023/07/29 08:10:54;;;;;;;3.05;1.40;;;23.70;99.90;;;;;;4918175;29;20060;-84
2023/07/29 08:13:21;;;;;;;3.33;1.45;;;23.80;99.90;;;;;;4917480;29;20060;-81
2023/07/29 08:15:50;;;;;;;3.08;1.33;;;23.80;99.90;;;;;;4903549;29;20048;-82
2023/07/29 08:18:17;;;;;;;2.00;1.40;;;23.90;99.90;;;;;;4903785;29;20465;-82
2023/07/29 08:20:57;;;;;;;2.45;1.63;;;23.90;99.90;;;;;;4917742;29;20045;-80
2023/07/29 08:23:25;;;;;;;3.30;1.58;;;24.00;99.90;;;;;;4900145;29;20081;-82
2023/07/29 08:26:00;;;;;;;1.48;1.25;;;24.10;99.90;;;;;;4917666;29;20093;-81
2023/07/29 08:28:30;;;;;;;2.65;1.40;;;24.10;99.90;;;;;;4901666;29;20116;-81
2023/07/29 08:30:57;;;;;;;4.23;1.80;;;24.20;99.90;;;;;;4902926;29;20104;-81
2023/07/29 08:33:24;;;;;;;2.15;1.65;;;24.20;99.90;;;;;;4902938;29;20052;-81
2023/07/29 08:35:51;;;;;;;3.15;1.60;;;24.20;99.90;;;;;;4918505;29;20089;-84
2023/07/29 08:38:18;;;;;;;2.42;1.38;;;24.10;99.90;;;;;;4902520;29;20081;-82
2023/07/29 08:41:14;;;;;;;4.53;1.38;;;24.10;99.90;;;;;;4902744;29;20104;-83
2023/07/29 08:43:55;;;;;;;1.85;1.40;;;24.10;99.90;;;;;;4901849;29;20497;-83
2023/07/29 08:46:22;;;;;;;1.58;1.40;;;24.10;99.90;;;;;;4902677;29;20049;-84
2023/07/29 08:48:50;;;;;;;1.83;1.15;;;24.10;99.90;;;;;;4902947;29;20428;-84
2023/07/29 08:51:19;;;;;;;1.63;1.20;;;24.20;99.90;;;;;;4904723;29;20052;-83
2023/07/29 08:53:46;;;;;;;4.70;1.77;;;24.10;99.90;;;;;;4900523;29;20097;-82
2023/07/29 08:56:13;;;;;;;3.78;1.45;;;24.10;99.90;;;;;;4899882;29;20460;-85
2023/07/29 08:58:40;;;;;;;2.90;1.35;;;24.20;99.90;;;;;;4904782;29;20057;-83
2023/07/29 09:01:06;;;;;;;2.13;1.42;;;24.20;99.90;;;;;;4901801;29;20044;-84
2023/07/29 09:03:33;;;;;;;3.08;1.65;;;24.40;99.90;;;;;;4901341;29;20052;-84
2023/07/29 09:06:02;;;;;;;1.52;1.40;;;24.30;99.90;;;;;;4900789;29;20673;-82
2023/07/29 09:08:29;;;;;;;1.83;1.40;;;24.40;99.90;;;;;;4902012;29;20057;-83
2023/07/29 09:10:56;;;;;;;2.75;1.40;;;24.40;99.90;;;;;;4900467;29;20053;-83
2023/07/29 09:13:23;;;;;;;1.85;1.25;;;24.60;99.90;;;;;;4903152;29;20547;-84
2023/07/29 09:15:59;;;;;;;5.95;1.42;;;24.70;99.90;;;;;;4899015;29;20117;-83
2023/07/29 09:18:28;;;;;;;1.92;1.45;;;24.70;99.90;;;;;;4899268;29;20135;-85
2023/07/29 09:20:59;;;;;;;4.95;1.60;;;24.80;99.90;;;;;;4894645;29;20188;-84
2023/07/29 09:23:27;;;;;;;1.80;1.50;;;24.90;99.90;;;;;;4894883;29;20056;-84
2023/07/29 09:26:03;;;;;;;1.90;1.30;;;25.00;99.90;;;;;;4894070;29;20065;-85
2023/07/29 09:28:37;;;;;;;3.13;2.15;;;25.00;99.90;;;;;;4899162;29;20528;-84
2023/07/29 09:31:04;;;;;;;4.53;1.67;;;25.10;99.90;;;;;;4902141;29;20076;-84
2023/07/29 09:33:39;;;;;;;1.65;1.55;;;25.00;99.90;;;;;;4900204;29;20056;-84
2023/07/29 09:36:10;;;;;;;2.03;1.65;;;25.00;99.90;;;;;;4901419;29;20053;-83
2023/07/29 09:38:37;;;;;;;3.95;1.83;;;25.00;99.90;;;;;;4905249;29;20082;-83
2023/07/29 09:41:04;;;;;;;2.30;1.63;;;24.90;99.90;;;;;;4919700;29;20113;-82
2023/07/29 09:43:35;;;;;;;5.07;2.05;;;24.90;99.90;;;;;;4920669;29;20116;-83
2023/07/29 09:46:06;;;;;;;3.50;1.50;;;24.90;99.90;;;;;;4902896;29;20489;-83
2023/07/29 09:48:35;;;;;;;2.88;1.95;;;24.90;99.90;;;;;;4917597;29;20515;-83
2023/07/29 09:51:15;;;;;;;3.03;1.77;;;25.00;99.90;;;;;;4919805;29;20049;-82
2023/07/29 09:53:47;;;;;;;4.53;1.73;;;25.00;99.90;;;;;;4905881;29;20053;-85
2023/07/29 09:56:15;;;;;;;2.33;1.85;;;25.20;99.90;;;;;;4900737;29;20044;-85
2023/07/29 09:58:47;;;;;;;1.73;1.52;;;25.20;99.90;;;;;;4897830;29;20674;-84
2023/07/29 10:01:14;;;;;;;2.28;2.00;;;25.30;99.90;;;;;;4900925;29;20045;-85
2023/07/29 10:03:42;;;;;;;2.83;1.80;;;25.40;99.90;;;;;;4899215;29;20044;-85
2023/07/29 10:06:10;;;;;;;2.55;1.80;;;25.50;99.90;;;;;;4899432;29;20055;-85
2023/07/29 10:08:40;;;;;;;2.65;1.90;;;25.50;99.90;;;;;;4899451;29;20282;-84
2023/07/29 10:11:08;;;;;;;2.47;1.63;;;25.50;99.90;;;;;;4899765;29;20501;-84
2023/07/29 10:13:36;;;;;;;2.08;1.58;;;25.60;99.90;;;;;;4899306;29;20832;-85
2023/07/29 10:16:04;;;;;;;1.58;1.38;;;25.70;99.90;;;;;;4898766;29;20053;-84
2023/07/29 10:18:33;;;;;;;1.90;1.80;;;25.80;99.90;;;;;;4897573;29;20059;-84
2023/07/29 10:21:01;;;;;;;3.15;2.05;;;25.80;99.90;;;;;;4898915;29;20044;-85
2023/07/29 10:23:38;;;;;;;3.88;2.05;;;25.80;99.90;;;;;;4896996;29;20045;-85
2023/07/29 10:26:10;;;;;;;2.20;1.85;;;25.80;99.90;;;;;;4893818;29;20757;-84
2023/07/29 10:28:40;;;;;;;2.40;2.10;;;25.70;99.90;;;;;;4899254;29;20053;-83
2023/07/29 10:31:07;;;;;;;2.55;1.77;;;25.80;99.90;;;;;;4897905;29;20096;-84
2023/07/29 10:33:35;;;;;;;4.13;2.15;;;25.90;99.90;;;;;;4897028;29;20084;-84
2023/07/29 10:36:03;;;;;;;3.60;1.80;;;25.90;99.90;;;;;;4896615;29;20060;-84
2023/07/29 10:38:30;;;;;;;4.32;2.10;;;25.90;99.90;;;;;;4911776;29;20080;-85
2023/07/29 10:41:00;;;;;;;3.30;1.63;;;26.00;99.90;;;;;;4899952;29;20116;-84
2023/07/29 10:43:36;;;;;;;3.92;1.67;;;26.00;99.90;;;;;;4899693;29;20401;-85
2023/07/29 10:46:23;;;;;;;2.70;2.33;;;26.10;99.90;;;;;;4896780;29;20049;-84
2023/07/29 10:48:49;;;;;;;4.43;1.95;;;26.10;99.90;;;;;;4912485;29;20949;-85
2023/07/29 10:51:26;;;;;;;2.03;1.38;;;26.10;99.90;;;;;;4898532;29;20058;-84
2023/07/29 10:53:58;;;;;;;2.13;1.73;;;26.30;99.90;;;;;;4899284;29;20059;-84
2023/07/29 10:56:33;;;;;;;3.13;1.95;;;26.40;99.90;;;;;;4899692;29;20057;-84
2023/07/29 10:59:17;;;;;;;3.65;1.90;;;26.50;99.90;;;;;;4913089;29;20052;-84
2023/07/29 11:01:54;;;;;;;3.83;2.05;;;26.50;99.90;;;;;;4893747;29;20045;-84
2023/07/29 11:04:23;;;;;;;3.85;1.73;;;26.50;99.90;;;;;;4897321;29;20060;-84
2023/07/29 11:07:07;;;;;;;2.90;1.70;;;26.60;99.90;;;;;;4897753;29;20080;-83
2023/07/29 11:09:47;;;;;;;2.30;1.77;;;26.60;99.90;;;;;;4912700;29;20056;-83
2023/07/29 11:12:53;;;;;;;2.42;1.90;;;26.60;99.90;;;;;;4900718;29;20517;-85
2023/07/29 11:15:26;;;;;;;2.38;1.58;;;26.60;99.90;;;;;;4896067;29;20052;-82
2023/07/29 11:17:57;;;;;;;1.73;1.50;;;26.70;99.90;;;;;;4893642;29;20049;-81
2023/07/29 11:20:29;;;;;;;3.47;1.67;;;26.70;99.90;;;;;;4898762;29;20095;-83
2023/07/29 11:22:58;;;;;;;2.70;1.48;;;26.70;99.90;;;;;;4892605;29;20589;-82
2023/07/29 11:25:27;;;;;;;2.47;1.73;;;26.80;99.90;;;;;;4898183;29;20052;-83
2023/07/29 11:27:59;;;;;;;2.00;1.80;;;26.80;99.90;;;;;;4892603;29;20056;-83
2023/07/29 11:30:29;;;;;;;3.45;1.92;;;26.80;99.90;;;;;;4894741;29;21782;-82
2023/07/29 11:32:56;;;;;;;3.08;2.00;;;26.90;99.90;;;;;;4897394;29;20476;-82
2023/07/29 11:35:23;;;;;;;2.55;1.90;;;26.90;99.90;;;;;;4898551;29;20052;-83
2023/07/29 11:37:51;;;;;;;2.45;1.73;;;27.00;99.90;;;;;;4897587;29;20104;-82
2023/07/29 11:40:22;;;;;;;2.30;2.05;;;27.00;99.90;;;;;;4896176;29;20056;-83
2023/07/29 11:42:51;;;;;;;2.20;2.00;;;26.90;99.90;;;;;;4896660;29;20100;-82
2023/07/29 11:45:19;;;;;;;7.55;2.30;;;27.00;99.90;;;;;;4893825;29;20088;-82
2023/07/29 11:47:46;;;;;;;2.17;1.90;;;27.00;99.90;;;;;;4896219;29;20048;-82
2023/07/29 11:50:14;;;;;;;2.25;1.83;;;27.10;99.90;;;;;;4895585;29;20048;-82
2023/07/29 11:52:43;;;;;;;3.78;1.77;;;27.10;99.90;;;;;;4894328;29;20053;-82
2023/07/29 11:55:11;;;;;;;2.50;1.70;;;27.20;99.90;;;;;;4910761;29;20084;-83
2023/07/29 11:57:38;;;;;;;2.47;1.90;;;27.20;99.90;;;;;;4911507;29;20052;-82
2023/07/29 12:00:10;;;;;;;4.30;1.55;;;27.30;99.90;;;;;;4893241;29;20045;-82
2023/07/29 12:02:40;;;;;;;2.00;1.50;;;27.30;99.90;;;;;;4894244;29;20052;-82
2023/07/29 12:05:09;;;;;;;2.28;1.45;;;27.20;99.90;;;;;;4896987;29;20524;-83
2023/07/29 12:07:38;;;;;;;3.60;1.40;;;27.30;99.90;;;;;;4896193;29;20114;-82
2023/07/29 12:10:05;;;;;;;3.95;1.75;;;27.30;99.90;;;;;;4911772;29;20538;-82
2023/07/29 12:12:32;;;;;;;2.08;1.52;;;27.30;99.90;;;;;;4897209;29;20056;-83
2023/07/29 12:14:59;;;;;;;1.42;1.33;;;27.30;99.90;;;;;;4896047;29;20060;-82
2023/07/29 12:17:26;;;;;;;2.63;1.40;;;27.20;99.90;;;;;;4895587;29;20049;-83
2023/07/29 12:19:55;;;;;;;2.42;1.23;;;27.20;99.90;;;;;;4910387;29;20040;-82
2023/07/29 12:22:21;;;;;;;4.28;1.75;;;27.20;99.90;;;;;;4890901;29;20127;-83
2023/07/29 12:24:51;;;;;;;1.42;1.30;;;27.20;99.90;;;;;;4897970;29;20060;-83
2023/07/29 12:27:21;;;;;;;3.42;1.50;;;27.20;99.90;;;;;;4897320;29;20120;-83
2023/07/29 12:29:50;;;;;;;;;;;27.10;99.90;;;;;;4897476;29;20049;-83
2023/07/29 12:32:17;;;;;;;1.77;1.40;;;27.00;99.90;;;;;;4897394;29;19931;-83
2023/07/29 12:34:44;;;;;;;2.72;1.60;;;27.00;99.90;;;;;;4912504;29;20658;-83
2023/07/29 12:37:11;;;;;;;3.40;1.48;;;26.90;99.90;;;;;;4898003;29;20480;-83
2023/07/29 12:39:43;;;;;;;4.70;1.48;;;26.80;99.90;;;;;;4897350;29;20044;-83
2023/07/29 12:42:10;;;;;;;5.60;1.55;;;26.70;99.90;;;;;;4895852;29;20489;-82
2023/07/29 12:44:38;;;;;;;2.03;1.55;;;26.60;99.90;;;;;;4897360;29;20044;-83
2023/07/29 12:47:06;;;;;;;2.35;1.50;;;26.60;99.90;;;;;;4897625;29;20662;-83
2023/07/29 12:49:33;;;;;;;3.15;1.17;;;26.70;99.90;;;;;;4909677;29;20048;-82
2023/07/29 12:52:00;;;;;;;2.25;1.50;;;26.70;99.90;;;;;;4897623;29;20171;-82
2023/07/29 12:54:27;;;;;;;2.75;1.70;;;26.80;99.90;;;;;;4898689;29;20045;-83